sensor_id;sensor_type;location;lat;lon;timestamp;P1;durP1;ratioP1;P2;durP2;ratioP2
6223;SDS011;3145;42.726;23.342;2023-07-31T00:02:19;4.93;;;4.53;;
6223;SDS011;3145;42.726;23.342;2023-07-31T00:04:45;6.47;;;4.87;;
6223;SDS011;3145;42.726;23.342;2023-07-31T00:07:12;4.57;;;4.20;;
6223;SDS011;3145;42.726;23.342;2023-07-31T00:09:39;4.20;;;3.90;;
6223;SDS011;3145;42.726;23.342;2023-07-31T00:12:06;4.60;;;4.30;;
6223;SDS011;3145;42.726;23.342;2023-07-31T00:14:33;4.83;;;4.40;;
6223;SDS011;3145;42.726;23.342;2023-07-31T00:17:01;4.60;;;4.30;;
6223;SDS011;3145;42.726;23.342;2023-07-31T00:19:28;4.37;;;4.00;;
6223;SDS011;3145;42.726;23.342;2023-07-31T00:21:54;4.67;;;4.37;;
6223;SDS011;3145;42.726;23.342;2023-07-31T00:24:21;4.37;;;4.07;;
6223;SDS011;3145;42.726;23.342;2023-07-31T00:26:48;4.57;;;4.17;;
6223;SDS011;3145;42.726;23.342;2023-07-31T00:29:15;4.80;;;4.50;;
6223;SDS011;3145;42.726;23.342;2023-07-31T00:31:41;6.33;;;4.50;;
6223;SDS011;3145;42.726;23.342;2023-07-31T00:34:09;5.47;;;5.07;;
6223;SDS011;3145;42.726;23.342;2023-07-31T00:36:36;5.80;;;4.57;;
6223;SDS011;3145;42.726;23.342;2023-07-31T00:39:03;4.93;;;4.57;;
6223;SDS011;3145;42.726;23.342;2023-07-31T00:41:30;5.23;;;4.27;;
6223;SDS011;3145;42.726;23.342;2023-07-31T00:43:57;4.93;;;4.63;;
6223;SDS011;3145;42.726;23.342;2023-07-31T00:46:24;5.23;;;4.93;;
6223;SDS011;3145;42.726;23.342;2023-07-31T00:48:50;5.50;;;4.97;;
6223;SDS011;3145;42.726;23.342;2023-07-31T00:51:18;5.37;;;4.97;;
6223;SDS011;3145;42.726;23.342;2023-07-31T00:53:45;5.43;;;5.13;;
6223;SDS011;3145;42.726;23.342;2023-07-31T00:56:13;6.27;;;5.40;;
6223;SDS011;3145;42.726;23.342;2023-07-31T00:58:40;6.33;;;5.73;;
6223;SDS011;3145;42.726;23.342;2023-07-31T01:01:07;5.67;;;5.33;;
6223;SDS011;3145;42.726;23.342;2023-07-31T01:03:32;6.20;;;5.80;;
6223;SDS011;3145;42.726;23.342;2023-07-31T01:06:02;6.50;;;5.97;;
6223;SDS011;3145;42.726;23.342;2023-07-31T01:08:42;7.10;;;6.50;;
6223;SDS011;3145;42.726;23.342;2023-07-31T01:11:17;6.87;;;6.37;;
6223;SDS011;3145;42.726;23.342;2023-07-31T01:13:46;7.47;;;6.97;;
6223;SDS011;3145;42.726;23.342;2023-07-31T01:16:13;8.23;;;7.60;;
6223;SDS011;3145;42.726;23.342;2023-07-31T01:18:40;8.50;;;7.80;;
6223;SDS011;3145;42.726;23.342;2023-07-31T01:21:11;8.87;;;8.23;;
6223;SDS011;3145;42.726;23.342;2023-07-31T01:23:56;10.50;;;9.60;;
6223;SDS011;3145;42.726;23.342;2023-07-31T01:26:41;10.73;;;9.93;;
6223;SDS011;3145;42.726;23.342;2023-07-31T01:29:15;12.00;;;10.93;;
6223;SDS011;3145;42.726;23.342;2023-07-31T01:31:48;12.00;;;10.93;;
6223;SDS011;3145;42.726;23.342;2023-07-31T01:34:16;11.93;;;10.93;;
6223;SDS011;3145;42.726;23.342;2023-07-31T01:36:44;11.73;;;10.73;;
6223;SDS011;3145;42.726;23.342;2023-07-31T01:39:11;12.73;;;11.53;;
6223;SDS011;3145;42.726;23.342;2023-07-31T01:41:37;13.53;;;12.30;;
6223;SDS011;3145;42.726;23.342;2023-07-31T01:44:06;13.63;;;12.33;;
6223;SDS011;3145;42.726;23.342;2023-07-31T01:46:33;14.37;;;13.17;;
6223;SDS011;3145;42.726;23.342;2023-07-31T01:48:59;13.67;;;12.47;;
6223;SDS011;3145;42.726;23.342;2023-07-31T01:51:26;15.33;;;13.93;;
6223;SDS011;3145;42.726;23.342;2023-07-31T01:53:53;15.20;;;13.90;;
6223;SDS011;3145;42.726;23.342;2023-07-31T01:56:19;17.10;;;15.47;;
6223;SDS011;3145;42.726;23.342;2023-07-31T01:58:46;16.10;;;14.50;;
6223;SDS011;3145;42.726;23.342;2023-07-31T02:01:14;17.47;;;15.60;;
6223;SDS011;3145;42.726;23.342;2023-07-31T02:03:41;18.37;;;16.43;;
6223;SDS011;3145;42.726;23.342;2023-07-31T02:06:08;17.33;;;15.63;;
6223;SDS011;3145;42.726;23.342;2023-07-31T02:08:35;18.70;;;16.50;;
6223;SDS011;3145;42.726;23.342;2023-07-31T02:11:01;17.57;;;15.83;;
6223;SDS011;3145;42.726;23.342;2023-07-31T02:13:28;18.90;;;17.10;;
6223;SDS011;3145;42.726;23.342;2023-07-31T02:15:55;18.37;;;16.57;;
6223;SDS011;3145;42.726;23.342;2023-07-31T02:18:23;17.70;;;16.00;;
6223;SDS011;3145;42.726;23.342;2023-07-31T02:20:50;18.30;;;16.57;;
6223;SDS011;3145;42.726;23.342;2023-07-31T02:23:17;17.20;;;15.47;;
6223;SDS011;3145;42.726;23.342;2023-07-31T02:25:44;19.20;;;17.20;;
6223;SDS011;3145;42.726;23.342;2023-07-31T02:28:11;19.40;;;17.40;;
6223;SDS011;3145;42.726;23.342;2023-07-31T02:30:37;18.37;;;16.63;;
6223;SDS011;3145;42.726;23.342;2023-07-31T02:33:05;18.33;;;16.57;;
6223;SDS011;3145;42.726;23.342;2023-07-31T02:35:33;19.17;;;17.37;;
6223;SDS011;3145;42.726;23.342;2023-07-31T02:37:59;21.10;;;18.87;;
6223;SDS011;3145;42.726;23.342;2023-07-31T02:40:26;19.83;;;17.67;;
6223;SDS011;3145;42.726;23.342;2023-07-31T02:42:53;20.03;;;17.67;;
6223;SDS011;3145;42.726;23.342;2023-07-31T02:45:19;20.00;;;18.03;;
6223;SDS011;3145;42.726;23.342;2023-07-31T02:47:46;20.67;;;17.90;;
6223;SDS011;3145;42.726;23.342;2023-07-31T02:50:13;20.73;;;18.73;;
6223;SDS011;3145;42.726;23.342;2023-07-31T02:52:41;22.83;;;19.60;;
6223;SDS011;3145;42.726;23.342;2023-07-31T02:55:08;25.57;;;20.40;;
6223;SDS011;3145;42.726;23.342;2023-07-31T02:57:34;23.27;;;20.77;;
6223;SDS011;3145;42.726;23.342;2023-07-31T03:00:01;23.03;;;20.57;;
6223;SDS011;3145;42.726;23.342;2023-07-31T03:02:30;23.03;;;20.63;;
6223;SDS011;3145;42.726;23.342;2023-07-31T03:04:57;24.10;;;20.67;;
6223;SDS011;3145;42.726;23.342;2023-07-31T03:07:24;24.30;;;21.73;;
6223;SDS011;3145;42.726;23.342;2023-07-31T03:09:52;23.10;;;20.73;;
6223;SDS011;3145;42.726;23.342;2023-07-31T03:12:19;25.63;;;22.53;;
6223;SDS011;3145;42.726;23.342;2023-07-31T03:14:45;24.37;;;21.90;;
6223;SDS011;3145;42.726;23.342;2023-07-31T03:17:12;26.10;;;23.33;;
6223;SDS011;3145;42.726;23.342;2023-07-31T03:19:39;27.27;;;22.57;;
6223;SDS011;3145;42.726;23.342;2023-07-31T03:22:05;26.63;;;22.53;;
6223;SDS011;3145;42.726;23.342;2023-07-31T03:24:32;25.77;;;22.17;;
6223;SDS011;3145;42.726;23.342;2023-07-31T03:27:00;24.13;;;21.60;;
6223;SDS011;3145;42.726;23.342;2023-07-31T03:29:27;24.13;;;21.53;;
6223;SDS011;3145;42.726;23.342;2023-07-31T03:31:53;24.47;;;22.00;;
6223;SDS011;3145;42.726;23.342;2023-07-31T03:34:20;24.47;;;21.87;;
6223;SDS011;3145;42.726;23.342;2023-07-31T03:36:47;24.57;;;21.87;;
6223;SDS011;3145;42.726;23.342;2023-07-31T03:39:14;22.60;;;20.17;;
6223;SDS011;3145;42.726;23.342;2023-07-31T03:41:40;24.27;;;21.57;;
6223;SDS011;3145;42.726;23.342;2023-07-31T03:44:08;23.53;;;21.13;;
6223;SDS011;3145;42.726;23.342;2023-07-31T03:46:35;23.03;;;20.63;;
6223;SDS011;3145;42.726;23.342;2023-07-31T03:49:02;23.17;;;20.67;;
6223;SDS011;3145;42.726;23.342;2023-07-31T03:51:28;22.70;;;20.30;;
6223;SDS011;3145;42.726;23.342;2023-07-31T03:53:55;27.47;;;22.70;;
6223;SDS011;3145;42.726;23.342;2023-07-31T03:56:22;22.83;;;20.50;;
6223;SDS011;3145;42.726;23.342;2023-07-31T03:58:49;25.13;;;22.43;;
6223;SDS011;3145;42.726;23.342;2023-07-31T04:01:17;31.50;;;22.20;;
6223;SDS011;3145;42.726;23.342;2023-07-31T04:03:44;24.57;;;21.87;;
6223;SDS011;3145;42.726;23.342;2023-07-31T04:06:11;29.67;;;23.10;;
6223;SDS011;3145;42.726;23.342;2023-07-31T04:08:38;26.13;;;22.23;;
6223;SDS011;3145;42.726;23.342;2023-07-31T04:11:09;23.33;;;20.87;;
6223;SDS011;3145;42.726;23.342;2023-07-31T04:13:36;26.70;;;22.40;;
6223;SDS011;3145;42.726;23.342;2023-07-31T04:16:03;28.80;;;23.97;;
6223;SDS011;3145;42.726;23.342;2023-07-31T04:18:31;25.13;;;21.47;;
6223;SDS011;3145;42.726;23.342;2023-07-31T04:20:58;26.93;;;23.90;;
6223;SDS011;3145;42.726;23.342;2023-07-31T04:23:26;25.67;;;21.80;;
6223;SDS011;3145;42.726;23.342;2023-07-31T04:25:53;28.33;;;23.57;;
6223;SDS011;3145;42.726;23.342;2023-07-31T04:28:19;29.20;;;23.30;;
6223;SDS011;3145;42.726;23.342;2023-07-31T04:30:46;29.10;;;23.70;;
6223;SDS011;3145;42.726;23.342;2023-07-31T04:33:13;27.87;;;23.10;;
6223;SDS011;3145;42.726;23.342;2023-07-31T04:35:41;29.10;;;23.37;;
6223;SDS011;3145;42.726;23.342;2023-07-31T04:38:08;30.50;;;23.10;;
6223;SDS011;3145;42.726;23.342;2023-07-31T04:40:34;27.23;;;23.87;;
6223;SDS011;3145;42.726;23.342;2023-07-31T04:43:01;26.77;;;22.73;;
6223;SDS011;3145;42.726;23.342;2023-07-31T04:45:28;25.40;;;22.33;;
6223;SDS011;3145;42.726;23.342;2023-07-31T04:47:54;26.70;;;22.83;;
6223;SDS011;3145;42.726;23.342;2023-07-31T04:50:21;29.60;;;22.47;;
6223;SDS011;3145;42.726;23.342;2023-07-31T04:52:49;25.03;;;21.93;;
6223;SDS011;3145;42.726;23.342;2023-07-31T04:55:16;27.73;;;22.00;;
6223;SDS011;3145;42.726;23.342;2023-07-31T04:57:43;25.27;;;21.80;;
6223;SDS011;3145;42.726;23.342;2023-07-31T05:00:10;27.50;;;22.53;;
6223;SDS011;3145;42.726;23.342;2023-07-31T05:02:37;24.33;;;21.13;;
6223;SDS011;3145;42.726;23.342;2023-07-31T05:05:04;25.80;;;21.70;;
6223;SDS011;3145;42.726;23.342;2023-07-31T05:07:30;29.53;;;22.23;;
6223;SDS011;3145;42.726;23.342;2023-07-31T05:09:58;27.07;;;22.23;;
6223;SDS011;3145;42.726;23.342;2023-07-31T05:12:25;25.80;;;21.33;;
6223;SDS011;3145;42.726;23.342;2023-07-31T05:14:52;26.87;;;21.47;;
6223;SDS011;3145;42.726;23.342;2023-07-31T05:17:18;25.43;;;20.40;;
6223;SDS011;3145;42.726;23.342;2023-07-31T05:19:45;21.97;;;19.77;;
6223;SDS011;3145;42.726;23.342;2023-07-31T05:22:12;20.80;;;18.63;;
6223;SDS011;3145;42.726;23.342;2023-07-31T05:24:38;21.08;;;17.35;;
6223;SDS011;3145;42.726;23.342;2023-07-31T05:27:07;21.05;;;18.77;;
6223;SDS011;3145;42.726;23.342;2023-07-31T05:29:34;18.35;;;15.45;;
6223;SDS011;3145;42.726;23.342;2023-07-31T05:32:01;18.20;;;16.50;;
6223;SDS011;3145;42.726;23.342;2023-07-31T05:34:28;17.65;;;15.75;;
6223;SDS011;3145;42.726;23.342;2023-07-31T05:36:55;17.08;;;15.13;;
6223;SDS011;3145;42.726;23.342;2023-07-31T05:39:22;15.90;;;14.48;;
6223;SDS011;3145;42.726;23.342;2023-07-31T05:41:49;16.63;;;15.02;;
6223;SDS011;3145;42.726;23.342;2023-07-31T05:44:17;15.27;;;13.75;;
6223;SDS011;3145;42.726;23.342;2023-07-31T05:46:43;15.32;;;13.98;;
6223;SDS011;3145;42.726;23.342;2023-07-31T05:49:10;15.15;;;13.75;;
6223;SDS011;3145;42.726;23.342;2023-07-31T05:51:37;15.85;;;14.45;;
6223;SDS011;3145;42.726;23.342;2023-07-31T05:54:03;13.77;;;12.65;;
6223;SDS011;3145;42.726;23.342;2023-07-31T05:56:31;11.82;;;10.93;;
6223;SDS011;3145;42.726;23.342;2023-07-31T05:58:59;10.88;;;10.07;;
6223;SDS011;3145;42.726;23.342;2023-07-31T06:01:27;12.10;;;10.93;;
6223;SDS011;3145;42.726;23.342;2023-07-31T06:03:53;12.40;;;11.30;;
6223;SDS011;3145;42.726;23.342;2023-07-31T06:06:20;12.85;;;11.85;;
6223;SDS011;3145;42.726;23.342;2023-07-31T06:08:47;10.50;;;9.73;;
6223;SDS011;3145;42.726;23.342;2023-07-31T06:11:15;10.75;;;9.68;;
6223;SDS011;3145;42.726;23.342;2023-07-31T06:13:41;10.82;;;9.93;;
6223;SDS011;3145;42.726;23.342;2023-07-31T06:16:09;11.73;;;10.82;;
6223;SDS011;3145;42.726;23.342;2023-07-31T06:18:37;10.20;;;9.18;;
6223;SDS011;3145;42.726;23.342;2023-07-31T06:21:04;9.18;;;8.55;;
6223;SDS011;3145;42.726;23.342;2023-07-31T06:23:31;9.55;;;8.77;;
6223;SDS011;3145;42.726;23.342;2023-07-31T06:25:58;8.65;;;7.97;;
6223;SDS011;3145;42.726;23.342;2023-07-31T06:28:27;8.05;;;7.32;;
6223;SDS011;3145;42.726;23.342;2023-07-31T06:30:54;7.53;;;6.75;;
6223;SDS011;3145;42.726;23.342;2023-07-31T06:33:21;8.05;;;7.18;;
6223;SDS011;3145;42.726;23.342;2023-07-31T06:35:49;7.53;;;6.60;;
6223;SDS011;3145;42.726;23.342;2023-07-31T06:38:18;8.43;;;7.88;;
6223;SDS011;3145;42.726;23.342;2023-07-31T06:40:45;7.60;;;6.68;;
6223;SDS011;3145;42.726;23.342;2023-07-31T06:43:12;6.43;;;6.03;;
6223;SDS011;3145;42.726;23.342;2023-07-31T06:45:38;5.70;;;5.30;;
6223;SDS011;3145;42.726;23.342;2023-07-31T06:48:05;6.82;;;6.07;;
6223;SDS011;3145;42.726;23.342;2023-07-31T06:50:32;6.55;;;6.03;;
6223;SDS011;3145;42.726;23.342;2023-07-31T06:53:00;6.38;;;5.97;;
6223;SDS011;3145;42.726;23.342;2023-07-31T06:55:27;5.15;;;4.75;;
6223;SDS011;3145;42.726;23.342;2023-07-31T06:57:54;5.45;;;4.68;;
6223;SDS011;3145;42.726;23.342;2023-07-31T07:00:22;6.15;;;5.18;;
6223;SDS011;3145;42.726;23.342;2023-07-31T07:02:49;5.43;;;4.95;;
6223;SDS011;3145;42.726;23.342;2023-07-31T07:05:16;9.30;;;4.80;;
6223;SDS011;3145;42.726;23.342;2023-07-31T07:07:43;5.13;;;4.28;;
6223;SDS011;3145;42.726;23.342;2023-07-31T07:10:11;4.55;;;4.25;;
6223;SDS011;3145;42.726;23.342;2023-07-31T07:12:38;7.03;;;5.00;;
6223;SDS011;3145;42.726;23.342;2023-07-31T07:15:05;4.70;;;4.20;;
6223;SDS011;3145;42.726;23.342;2023-07-31T07:17:32;5.00;;;4.47;;
6223;SDS011;3145;42.726;23.342;2023-07-31T07:19:59;7.32;;;4.35;;
6223;SDS011;3145;42.726;23.342;2023-07-31T07:22:26;4.97;;;4.18;;
6223;SDS011;3145;42.726;23.342;2023-07-31T07:24:53;7.88;;;4.80;;
6223;SDS011;3145;42.726;23.342;2023-07-31T07:27:21;5.65;;;5.15;;
6223;SDS011;3145;42.726;23.342;2023-07-31T07:29:50;4.75;;;4.45;;
6223;SDS011;3145;42.726;23.342;2023-07-31T07:32:18;4.45;;;4.05;;
6223;SDS011;3145;42.726;23.342;2023-07-31T07:34:45;6.55;;;5.35;;
6223;SDS011;3145;42.726;23.342;2023-07-31T07:37:11;6.47;;;4.22;;
6223;SDS011;3145;42.726;23.342;2023-07-31T07:39:38;7.25;;;5.05;;
6223;SDS011;3145;42.726;23.342;2023-07-31T07:42:05;6.88;;;5.50;;
6223;SDS011;3145;42.726;23.342;2023-07-31T07:44:33;6.60;;;4.90;;
6223;SDS011;3145;42.726;23.342;2023-07-31T07:47:00;4.10;;;3.70;;
6223;SDS011;3145;42.726;23.342;2023-07-31T07:49:27;5.72;;;3.70;;
6223;SDS011;3145;42.726;23.342;2023-07-31T07:51:54;4.53;;;3.92;;
6223;SDS011;3145;42.726;23.342;2023-07-31T07:54:20;5.97;;;4.53;;
6223;SDS011;3145;42.726;23.342;2023-07-31T07:56:47;4.28;;;4.07;;
6223;SDS011;3145;42.726;23.342;2023-07-31T07:59:14;4.72;;;4.30;;
6223;SDS011;3145;42.726;23.342;2023-07-31T08:01:43;10.15;;;4.43;;
6223;SDS011;3145;42.726;23.342;2023-07-31T08:04:09;4.20;;;3.90;;
6223;SDS011;3145;42.726;23.342;2023-07-31T08:06:36;6.72;;;3.95;;
6223;SDS011;3145;42.726;23.342;2023-07-31T08:09:02;4.97;;;3.35;;
6223;SDS011;3145;42.726;23.342;2023-07-31T08:11:31;4.90;;;3.75;;
6223;SDS011;3145;42.726;23.342;2023-07-31T08:13:58;4.28;;;3.50;;
6223;SDS011;3145;42.726;23.342;2023-07-31T08:16:25;6.75;;;3.65;;
6223;SDS011;3145;42.726;23.342;2023-07-31T08:18:53;3.97;;;3.60;;
6223;SDS011;3145;42.726;23.342;2023-07-31T08:21:19;3.55;;;3.25;;
6223;SDS011;3145;42.726;23.342;2023-07-31T08:23:47;5.63;;;2.90;;
6223;SDS011;3145;42.726;23.342;2023-07-31T08:26:16;10.43;;;4.53;;
6223;SDS011;3145;42.726;23.342;2023-07-31T08:28:43;3.80;;;3.35;;
6223;SDS011;3145;42.726;23.342;2023-07-31T08:31:10;5.68;;;3.63;;
6223;SDS011;3145;42.726;23.342;2023-07-31T08:33:37;3.30;;;3.10;;
6223;SDS011;3145;42.726;23.342;2023-07-31T08:36:06;6.30;;;3.28;;
6223;SDS011;3145;42.726;23.342;2023-07-31T08:38:33;3.67;;;3.28;;
6223;SDS011;3145;42.726;23.342;2023-07-31T08:41:00;7.82;;;3.58;;
6223;SDS011;3145;42.726;23.342;2023-07-31T08:43:26;7.18;;;4.45;;
6223;SDS011;3145;42.726;23.342;2023-07-31T08:45:54;3.25;;;3.00;;
6223;SDS011;3145;42.726;23.342;2023-07-31T08:48:21;5.38;;;3.10;;
6223;SDS011;3145;42.726;23.342;2023-07-31T08:50:49;4.70;;;3.00;;
6223;SDS011;3145;42.726;23.342;2023-07-31T08:53:17;4.03;;;2.88;;
6223;SDS011;3145;42.726;23.342;2023-07-31T08:55:44;9.75;;;3.15;;
6223;SDS011;3145;42.726;23.342;2023-07-31T08:58:12;3.20;;;3.00;;
6223;SDS011;3145;42.726;23.342;2023-07-31T09:00:40;3.88;;;2.85;;
6223;SDS011;3145;42.726;23.342;2023-07-31T09:03:09;2.83;;;2.53;;
6223;SDS011;3145;42.726;23.342;2023-07-31T09:05:41;5.45;;;2.85;;
6223;SDS011;3145;42.726;23.342;2023-07-31T09:08:08;3.42;;;2.60;;
6223;SDS011;3145;42.726;23.342;2023-07-31T09:10:41;3.03;;;2.38;;
6223;SDS011;3145;42.726;23.342;2023-07-31T09:13:08;2.70;;;2.50;;
6223;SDS011;3145;42.726;23.342;2023-07-31T09:15:35;3.65;;;2.78;;
6223;SDS011;3145;42.726;23.342;2023-07-31T09:18:03;2.70;;;2.50;;
6223;SDS011;3145;42.726;23.342;2023-07-31T09:20:31;6.38;;;2.75;;
6223;SDS011;3145;42.726;23.342;2023-07-31T09:23:04;3.45;;;2.42;;
6223;SDS011;3145;42.726;23.342;2023-07-31T09:25:32;3.95;;;2.75;;
6223;SDS011;3145;42.726;23.342;2023-07-31T09:28:01;2.75;;;2.55;;
6223;SDS011;3145;42.726;23.342;2023-07-31T09:30:29;5.13;;;2.70;;
6223;SDS011;3145;42.726;23.342;2023-07-31T09:33:00;7.20;;;2.45;;
6223;SDS011;3145;42.726;23.342;2023-07-31T09:35:29;2.63;;;2.38;;
6223;SDS011;3145;42.726;23.342;2023-07-31T09:37:58;3.53;;;2.40;;
6223;SDS011;3145;42.726;23.342;2023-07-31T09:40:27;2.83;;;2.30;;
6223;SDS011;3145;42.726;23.342;2023-07-31T09:42:56;3.10;;;2.40;;
6223;SDS011;3145;42.726;23.342;2023-07-31T09:45:25;4.10;;;2.60;;
6223;SDS011;3145;42.726;23.342;2023-07-31T09:47:53;3.58;;;2.33;;
6223;SDS011;3145;42.726;23.342;2023-07-31T09:50:20;8.00;;;3.47;;
6223;SDS011;3145;42.726;23.342;2023-07-31T09:52:48;2.30;;;2.10;;
6223;SDS011;3145;42.726;23.342;2023-07-31T09:55:15;3.50;;;2.00;;
6223;SDS011;3145;42.726;23.342;2023-07-31T09:57:45;2.30;;;1.98;;
6223;SDS011;3145;42.726;23.342;2023-07-31T10:00:14;11.68;;;2.33;;
6223;SDS011;3145;42.726;23.342;2023-07-31T10:02:44;2.42;;;1.90;;
6223;SDS011;3145;42.726;23.342;2023-07-31T10:05:13;1.95;;;1.70;;
6223;SDS011;3145;42.726;23.342;2023-07-31T10:07:42;4.05;;;1.60;;
6223;SDS011;3145;42.726;23.342;2023-07-31T10:10:11;2.90;;;2.53;;
6223;SDS011;3145;42.726;23.342;2023-07-31T10:12:41;1.92;;;1.83;;
6223;SDS011;3145;42.726;23.342;2023-07-31T10:15:10;4.05;;;1.70;;
6223;SDS011;3145;42.726;23.342;2023-07-31T10:17:37;2.53;;;1.85;;
6223;SDS011;3145;42.726;23.342;2023-07-31T10:20:06;2.58;;;1.80;;
6223;SDS011;3145;42.726;23.342;2023-07-31T10:22:34;2.50;;;1.23;;
6223;SDS011;3145;42.726;23.342;2023-07-31T10:25:02;2.53;;;1.38;;
6223;SDS011;3145;42.726;23.342;2023-07-31T10:27:29;4.75;;;1.27;;
6223;SDS011;3145;42.726;23.342;2023-07-31T10:29:56;5.20;;;1.80;;
6223;SDS011;3145;42.726;23.342;2023-07-31T10:32:24;2.50;;;1.60;;
6223;SDS011;3145;42.726;23.342;2023-07-31T10:34:52;2.25;;;1.67;;
6223;SDS011;3145;42.726;23.342;2023-07-31T10:37:23;2.40;;;1.27;;
6223;SDS011;3145;42.726;23.342;2023-07-31T10:39:58;2.70;;;1.60;;
6223;SDS011;3145;42.726;23.342;2023-07-31T10:42:30;3.05;;;1.42;;
6223;SDS011;3145;42.726;23.342;2023-07-31T10:44:58;5.07;;;3.05;;
6223;SDS011;3145;42.726;23.342;2023-07-31T10:47:25;6.97;;;2.50;;
6223;SDS011;3145;42.726;23.342;2023-07-31T10:49:52;5.45;;;3.03;;
6223;SDS011;3145;42.726;23.342;2023-07-31T10:52:19;6.30;;;3.65;;
6223;SDS011;3145;42.726;23.342;2023-07-31T10:54:50;2.85;;;1.40;;
6223;SDS011;3145;42.726;23.342;2023-07-31T10:57:41;2.83;;;1.80;;
6223;SDS011;3145;42.726;23.342;2023-07-31T11:00:20;2.45;;;1.17;;
6223;SDS011;3145;42.726;23.342;2023-07-31T11:02:58;2.55;;;1.60;;
6223;SDS011;3145;42.726;23.342;2023-07-31T11:05:44;4.65;;;2.00;;
6223;SDS011;3145;42.726;23.342;2023-07-31T11:08:13;2.33;;;1.50;;
6223;SDS011;3145;42.726;23.342;2023-07-31T11:10:43;2.55;;;1.73;;
6223;SDS011;3145;42.726;23.342;2023-07-31T11:13:10;4.75;;;2.55;;
6223;SDS011;3145;42.726;23.342;2023-07-31T11:15:37;2.83;;;2.58;;
6223;SDS011;3145;42.726;23.342;2023-07-31T11:18:04;2.60;;;1.60;;
6223;SDS011;3145;42.726;23.342;2023-07-31T11:20:33;3.25;;;1.73;;
6223;SDS011;3145;42.726;23.342;2023-07-31T11:23:01;5.53;;;1.70;;
6223;SDS011;3145;42.726;23.342;2023-07-31T11:25:29;2.28;;;1.20;;
6223;SDS011;3145;42.726;23.342;2023-07-31T11:28:01;2.33;;;1.58;;
6223;SDS011;3145;42.726;23.342;2023-07-31T11:30:29;3.10;;;2.80;;
6223;SDS011;3145;42.726;23.342;2023-07-31T11:32:55;1.55;;;1.45;;
6223;SDS011;3145;42.726;23.342;2023-07-31T11:35:22;2.60;;;1.80;;
6223;SDS011;3145;42.726;23.342;2023-07-31T11:37:49;3.28;;;1.50;;
6223;SDS011;3145;42.726;23.342;2023-07-31T11:40:16;2.60;;;2.20;;
6223;SDS011;3145;42.726;23.342;2023-07-31T11:42:45;4.57;;;2.60;;
6223;SDS011;3145;42.726;23.342;2023-07-31T11:45:13;5.72;;;2.40;;
6223;SDS011;3145;42.726;23.342;2023-07-31T11:47:39;2.30;;;2.10;;
6223;SDS011;3145;42.726;23.342;2023-07-31T11:50:07;5.53;;;2.42;;
6223;SDS011;3145;42.726;23.342;2023-07-31T11:52:38;2.30;;;1.67;;
6223;SDS011;3145;42.726;23.342;2023-07-31T11:55:12;1.98;;;1.77;;
6223;SDS011;3145;42.726;23.342;2023-07-31T11:57:40;1.70;;;1.60;;
6223;SDS011;3145;42.726;23.342;2023-07-31T12:00:10;2.53;;;2.05;;
6223;SDS011;3145;42.726;23.342;2023-07-31T12:02:39;2.13;;;1.88;;
6223;SDS011;3145;42.726;23.342;2023-07-31T12:05:09;6.35;;;1.63;;
6223;SDS011;3145;42.726;23.342;2023-07-31T12:07:47;3.72;;;2.30;;
6223;SDS011;3145;42.726;23.342;2023-07-31T12:10:26;4.28;;;2.60;;
6223;SDS011;3145;42.726;23.342;2023-07-31T12:13:01;2.83;;;2.22;;
6223;SDS011;3145;42.726;23.342;2023-07-31T12:15:33;4.13;;;3.83;;
6223;SDS011;3145;42.726;23.342;2023-07-31T12:18:05;9.40;;;4.47;;
6223;SDS011;3145;42.726;23.342;2023-07-31T12:20:32;5.03;;;4.22;;
6223;SDS011;3145;42.726;23.342;2023-07-31T12:23:00;4.30;;;3.90;;
6223;SDS011;3145;42.726;23.342;2023-07-31T12:25:30;6.82;;;4.35;;
6223;SDS011;3145;42.726;23.342;2023-07-31T12:27:58;4.90;;;4.60;;
6223;SDS011;3145;42.726;23.342;2023-07-31T12:30:32;5.72;;;4.20;;
6223;SDS011;3145;42.726;23.342;2023-07-31T12:33:02;5.28;;;4.78;;
6223;SDS011;3145;42.726;23.342;2023-07-31T12:35:35;4.68;;;4.28;;
6223;SDS011;3145;42.726;23.342;2023-07-31T12:38:02;4.82;;;4.30;;
6223;SDS011;3145;42.726;23.342;2023-07-31T12:40:29;5.40;;;4.90;;
6223;SDS011;3145;42.726;23.342;2023-07-31T12:42:56;6.70;;;4.80;;
6223;SDS011;3145;42.726;23.342;2023-07-31T12:45:23;4.70;;;4.40;;
6223;SDS011;3145;42.726;23.342;2023-07-31T12:47:49;4.93;;;4.63;;
6223;SDS011;3145;42.726;23.342;2023-07-31T12:50:18;5.03;;;4.72;;
6223;SDS011;3145;42.726;23.342;2023-07-31T12:52:44;5.65;;;5.25;;
6223;SDS011;3145;42.726;23.342;2023-07-31T12:55:11;6.18;;;5.78;;
6223;SDS011;3145;42.726;23.342;2023-07-31T12:57:39;7.75;;;6.60;;
6223;SDS011;3145;42.726;23.342;2023-07-31T13:00:06;6.68;;;6.07;;
6223;SDS011;3145;42.726;23.342;2023-07-31T13:02:33;5.70;;;5.13;;
6223;SDS011;3145;42.726;23.342;2023-07-31T13:05:00;9.25;;;5.20;;
6223;SDS011;3145;42.726;23.342;2023-07-31T13:07:28;5.45;;;5.15;;
6223;SDS011;3145;42.726;23.342;2023-07-31T13:09:55;4.55;;;4.25;;
6223;SDS011;3145;42.726;23.342;2023-07-31T13:12:22;5.35;;;4.85;;
6223;SDS011;3145;42.726;23.342;2023-07-31T13:14:48;4.93;;;4.63;;
6223;SDS011;3145;42.726;23.342;2023-07-31T13:17:16;5.55;;;5.15;;
6223;SDS011;3145;42.726;23.342;2023-07-31T13:19:42;4.55;;;4.25;;
6223;SDS011;3145;42.726;23.342;2023-07-31T13:22:09;4.97;;;4.68;;
6223;SDS011;3145;42.726;23.342;2023-07-31T13:24:37;4.55;;;4.25;;
6223;SDS011;3145;42.726;23.342;2023-07-31T13:27:04;4.90;;;4.47;;
6223;SDS011;3145;42.726;23.342;2023-07-31T13:29:31;5.20;;;4.63;;
6223;SDS011;3145;42.726;23.342;2023-07-31T13:31:57;5.43;;;4.88;;
6223;SDS011;3145;42.726;23.342;2023-07-31T13:34:24;5.55;;;5.25;;
6223;SDS011;3145;42.726;23.342;2023-07-31T13:36:51;6.38;;;4.88;;
6223;SDS011;3145;42.726;23.342;2023-07-31T13:39:17;6.82;;;6.13;;
6223;SDS011;3145;42.726;23.342;2023-07-31T13:41:45;7.25;;;5.97;;
6223;SDS011;3145;42.726;23.342;2023-07-31T13:44:12;6.25;;;4.60;;
6223;SDS011;3145;42.726;23.342;2023-07-31T13:46:39;4.78;;;4.47;;
6223;SDS011;3145;42.726;23.342;2023-07-31T13:49:05;4.90;;;4.45;;
6223;SDS011;3145;42.726;23.342;2023-07-31T13:51:32;4.18;;;3.78;;
6223;SDS011;3145;42.726;23.342;2023-07-31T13:53:59;4.97;;;4.57;;
6223;SDS011;3145;42.726;23.342;2023-07-31T13:56:26;4.95;;;4.40;;
6223;SDS011;3145;42.726;23.342;2023-07-31T13:58:54;4.40;;;3.97;;
6223;SDS011;3145;42.726;23.342;2023-07-31T14:01:21;4.53;;;3.63;;
6223;SDS011;3145;42.726;23.342;2023-07-31T14:03:47;3.85;;;3.65;;
6223;SDS011;3145;42.726;23.342;2023-07-31T14:06:14;6.15;;;5.55;;
6223;SDS011;3145;42.726;23.342;2023-07-31T14:08:41;5.10;;;4.60;;
6223;SDS011;3145;42.726;23.342;2023-07-31T14:11:07;4.80;;;4.35;;
6223;SDS011;3145;42.726;23.342;2023-07-31T14:13:34;4.45;;;3.80;;
6223;SDS011;3145;42.726;23.342;2023-07-31T14:16:02;5.32;;;4.90;;
6223;SDS011;3145;42.726;23.342;2023-07-31T14:18:29;4.60;;;4.30;;
6223;SDS011;3145;42.726;23.342;2023-07-31T14:20:56;4.10;;;3.80;;
6223;SDS011;3145;42.726;23.342;2023-07-31T14:23:23;3.92;;;3.72;;
6223;SDS011;3145;42.726;23.342;2023-07-31T14:25:49;3.67;;;3.42;;
6223;SDS011;3145;42.726;23.342;2023-07-31T14:28:16;4.53;;;4.13;;
6223;SDS011;3145;42.726;23.342;2023-07-31T14:30:43;5.07;;;4.40;;
6223;SDS011;3145;42.726;23.342;2023-07-31T14:33:11;8.70;;;3.85;;
6223;SDS011;3145;42.726;23.342;2023-07-31T14:35:37;4.10;;;3.78;;
6223;SDS011;3145;42.726;23.342;2023-07-31T14:38:04;3.92;;;3.63;;
6223;SDS011;3145;42.726;23.342;2023-07-31T14:40:31;3.90;;;3.70;;
6223;SDS011;3145;42.726;23.342;2023-07-31T14:42:58;4.13;;;3.83;;
6223;SDS011;3145;42.726;23.342;2023-07-31T14:45:25;4.20;;;3.90;;
6223;SDS011;3145;42.726;23.342;2023-07-31T14:47:51;3.80;;;3.60;;
6223;SDS011;3145;42.726;23.342;2023-07-31T14:50:20;3.63;;;3.38;;
6223;SDS011;3145;42.726;23.342;2023-07-31T14:52:48;3.50;;;3.30;;
6223;SDS011;3145;42.726;23.342;2023-07-31T14:55:15;4.10;;;3.20;;
6223;SDS011;3145;42.726;23.342;2023-07-31T14:57:41;4.20;;;3.90;;